createdAt,value
2022-11-08T00:00:27.352Z,1.00
2022-11-08T00:01:30.563Z,1.00
2022-11-08T00:02:34.147Z,0.86
2022-11-08T00:03:37.411Z,0.00
2022-11-08T00:04:40.793Z,0.33
2022-11-08T00:05:44.184Z,0.57
2022-11-08T00:06:47.500Z,0.43
2022-11-08T00:07:50.654Z,0.57
2022-11-08T00:08:54.338Z,0.00
2022-11-08T00:09:57.631Z,0.00
2022-11-08T00:11:01.014Z,0.00
2022-11-08T00:12:04.404Z,0.00
2022-11-08T00:13:07.812Z,0.00
2022-11-08T00:14:11.072Z,0.86
2022-11-08T00:15:14.484Z,0.57
2022-11-08T00:16:17.840Z,0.00
2022-11-08T00:17:21.132Z,0.00
2022-11-08T00:18:24.309Z,0.00
2022-11-08T00:19:27.493Z,0.00
2022-11-08T00:20:30.668Z,0.00
2022-11-08T00:21:33.855Z,0.00
2022-11-08T00:22:37.035Z,0.00
2022-11-08T00:23:40.112Z,0.00
2022-11-08T00:24:43.315Z,0.43
2022-11-08T00:25:46.393Z,0.00
2022-11-08T00:26:49.552Z,0.29
2022-11-08T00:27:52.840Z,0.57
2022-11-08T00:28:56.130Z,0.00
2022-11-08T00:29:59.509Z,0.00
2022-11-08T00:31:03.116Z,0.43
2022-11-08T00:32:06.698Z,0.57
2022-11-08T00:33:10.183Z,0.29
2022-11-08T00:34:13.375Z,0.29
2022-11-08T00:35:16.882Z,0.86
2022-11-08T00:36:20.049Z,1.14
2022-11-08T00:37:23.331Z,0.17
2022-11-08T00:38:26.714Z,0.00
2022-11-08T00:39:30.198Z,0.00
2022-11-08T00:40:33.380Z,0.00
2022-11-08T00:41:36.864Z,0.00
2022-11-08T00:42:40.362Z,0.00
2022-11-08T00:43:43.751Z,0.00
2022-11-08T00:44:47.032Z,0.00
2022-11-08T00:45:50.714Z,0.00
2022-11-08T00:46:53.802Z,0.00
2022-11-08T00:47:56.988Z,0.00
2022-11-08T00:49:00.366Z,0.00
2022-11-08T00:50:03.864Z,0.37
2022-11-08T00:51:07.252Z,0.43
2022-11-08T00:52:10.738Z,0.14
2022-11-08T00:53:13.949Z,0.43
2022-11-08T00:54:16.991Z,0.57
2022-11-08T00:55:20.080Z,0.43
2022-11-08T00:56:23.273Z,0.00
2022-11-08T00:57:41.220Z,0.00
2022-11-08T00:58:31.178Z,0.00
2022-11-08T00:59:34.453Z,0.00
2022-11-08T01:00:37.628Z,0.00
2022-11-08T01:01:41.120Z,1.00
2022-11-08T01:02:44.404Z,0.57
2022-11-08T01:03:47.871Z,0.29
2022-11-08T01:04:51.085Z,0.14
2022-11-08T01:05:54.256Z,0.43
2022-11-08T01:06:57.531Z,1.00
2022-11-08T01:08:00.642Z,0.57
2022-11-08T01:09:03.896Z,1.14
2022-11-08T01:10:07.184Z,1.14
2022-11-08T01:11:10.563Z,0.43
2022-11-08T01:12:13.762Z,1.00
2022-11-08T01:13:16.832Z,0.67
2022-11-08T01:14:20.224Z,0.43
2022-11-08T01:15:23.420Z,0.67
2022-11-08T01:16:26.577Z,0.00
2022-11-08T01:17:29.823Z,0.00
2022-11-08T01:18:33.149Z,0.00
2022-11-08T01:19:36.427Z,0.43
2022-11-08T01:20:39.923Z,0.57
2022-11-08T01:21:43.202Z,0.00
2022-11-08T01:22:46.388Z,0.33
2022-11-08T01:23:49.601Z,0.57
2022-11-08T01:24:52.642Z,0.00
2022-11-08T01:25:56.243Z,0.33
2022-11-08T01:26:59.525Z,0.57
2022-11-08T01:28:02.592Z,1.00
2022-11-08T01:29:05.792Z,1.14
2022-11-08T01:30:08.961Z,0.00
2022-11-08T01:31:12.251Z,0.00
2022-11-08T01:32:15.948Z,0.00
2022-11-08T01:33:19.244Z,0.00
2022-11-08T01:34:22.258Z,0.86
2022-11-08T01:35:25.598Z,1.14
2022-11-08T01:36:28.872Z,0.00
2022-11-08T01:37:32.376Z,0.33
2022-11-08T01:38:35.361Z,0.71
2022-11-08T01:39:38.527Z,0.17
2022-11-08T01:40:41.905Z,0.00
2022-11-08T01:41:45.089Z,0.43
2022-11-08T01:42:48.477Z,0.57
2022-11-08T01:43:51.940Z,0.00
2022-11-08T01:44:55.251Z,0.29
2022-11-08T01:45:58.852Z,0.00
2022-11-08T01:47:03.054Z,0.00
2022-11-08T01:48:06.467Z,0.00
2022-11-08T01:49:09.922Z,0.00
2022-11-08T01:50:13.409Z,0.00
2022-11-08T01:51:16.698Z,0.00
2022-11-08T01:52:19.981Z,0.86
2022-11-08T01:53:23.266Z,0.86
2022-11-08T01:54:26.510Z,0.43
2022-11-08T01:55:29.839Z,0.57
2022-11-08T01:56:33.018Z,0.14
2022-11-08T01:57:36.258Z,0.57
2022-11-08T01:58:39.382Z,0.00
2022-11-08T01:59:42.462Z,0.33
2022-11-08T02:00:45.949Z,0.71
2022-11-08T02:01:49.760Z,0.57
2022-11-08T02:02:53.337Z,0.00
2022-11-08T02:03:56.830Z,0.00
2022-11-08T02:05:00.308Z,0.43
2022-11-08T02:06:04.107Z,0.50
2022-11-08T02:07:07.801Z,0.00
2022-11-08T02:08:11.250Z,0.43
2022-11-08T02:09:14.678Z,0.14
2022-11-08T02:10:18.245Z,0.00
2022-11-08T02:11:21.554Z,0.00
2022-11-08T02:12:25.043Z,0.00
2022-11-08T02:13:28.325Z,0.00
2022-11-08T02:14:31.850Z,0.00
2022-11-08T02:15:35.421Z,0.43
2022-11-08T02:16:38.696Z,1.00
2022-11-08T02:17:41.874Z,0.71
2022-11-08T02:18:45.160Z,0.57
2022-11-08T02:19:48.651Z,0.00
2022-11-08T02:20:51.913Z,0.00
2022-11-08T02:21:55.531Z,0.00
2022-11-08T02:22:59.221Z,0.14
2022-11-08T02:24:02.701Z,0.50
2022-11-08T02:25:05.893Z,0.43
2022-11-08T02:26:09.071Z,0.71
2022-11-08T02:27:12.223Z,0.14
2022-11-08T02:28:15.997Z,0.43
2022-11-08T02:29:19.568Z,0.50
2022-11-08T02:30:22.645Z,0.00
2022-11-08T02:31:26.006Z,0.43
2022-11-08T02:32:29.196Z,1.00
2022-11-08T02:33:32.221Z,0.57
2022-11-08T02:34:35.436Z,0.33
2022-11-08T02:35:39.249Z,1.29
2022-11-08T02:36:42.633Z,1.43
2022-11-08T02:37:46.011Z,0.29
2022-11-08T02:38:49.093Z,0.00
2022-11-08T02:39:52.180Z,0.17
2022-11-08T02:40:55.458Z,1.17
2022-11-08T02:41:58.851Z,1.14
2022-11-08T02:43:02.138Z,0.00
2022-11-08T02:44:05.521Z,0.00
2022-11-08T02:45:08.906Z,0.00
2022-11-08T02:46:12.419Z,0.43
2022-11-08T02:47:15.885Z,1.50
2022-11-08T02:48:19.531Z,1.00
2022-11-08T02:49:23.152Z,0.50
2022-11-08T02:50:26.550Z,0.00
2022-11-08T02:51:29.940Z,0.29
2022-11-08T02:52:33.222Z,0.00
2022-11-08T02:53:36.408Z,0.00
2022-11-08T02:54:39.888Z,0.00
2022-11-08T02:55:43.282Z,0.00
2022-11-08T02:56:46.689Z,0.43
2022-11-08T02:57:50.075Z,0.29
2022-11-08T02:58:53.652Z,0.00
2022-11-08T02:59:57.252Z,0.43
2022-11-08T03:01:00.789Z,0.43
2022-11-08T03:02:04.421Z,1.00
2022-11-08T03:03:08.007Z,0.88
2022-11-08T03:04:11.400Z,0.00
2022-11-08T03:05:14.549Z,0.33
2022-11-08T03:06:17.663Z,0.17
2022-11-08T03:07:24.661Z,0.00
2022-11-08T03:08:25.761Z,0.00
2022-11-08T03:09:29.052Z,0.00
2022-11-08T03:10:32.211Z,0.00
2022-11-08T03:11:35.364Z,0.33
2022-11-08T03:12:38.591Z,1.00
2022-11-08T03:13:42.084Z,0.29
2022-11-08T03:14:45.773Z,0.71
2022-11-08T03:15:49.371Z,0.75
2022-11-08T03:16:52.952Z,0.29
2022-11-08T03:17:56.264Z,0.14
2022-11-08T03:18:59.530Z,0.50
2022-11-08T03:20:03.016Z,0.00
2022-11-08T03:21:06.304Z,0.00
2022-11-08T03:22:09.681Z,0.00
2022-11-08T03:23:12.866Z,0.33
2022-11-08T03:24:16.210Z,1.00
2022-11-08T03:25:19.742Z,1.14
2022-11-08T03:26:23.232Z,0.57
2022-11-08T03:27:26.622Z,0.00
2022-11-08T03:28:30.413Z,0.00
2022-11-08T03:29:33.820Z,0.13
2022-11-08T03:30:37.084Z,0.57
2022-11-08T03:31:40.581Z,0.43
2022-11-08T03:32:43.657Z,0.57
2022-11-08T03:33:46.872Z,0.00
2022-11-08T03:34:49.915Z,0.14
2022-11-08T03:35:53.512Z,0.43
2022-11-08T03:36:56.953Z,0.57
2022-11-08T03:38:00.284Z,0.43
2022-11-08T03:39:03.764Z,0.00
2022-11-08T03:40:07.260Z,0.00
2022-11-08T03:41:14.054Z,0.00
2022-11-08T03:42:17.303Z,0.00
2022-11-08T03:43:20.825Z,0.00
2022-11-08T03:44:24.354Z,0.00
2022-11-08T03:45:27.881Z,0.71
2022-11-08T03:46:31.030Z,0.57
2022-11-08T03:47:34.141Z,0.00
2022-11-08T03:48:37.322Z,0.43
2022-11-08T03:49:40.600Z,0.67
2022-11-08T03:50:43.994Z,0.00
2022-11-08T03:51:47.135Z,0.00
2022-11-08T03:52:50.253Z,0.33
2022-11-08T03:53:53.650Z,1.00
2022-11-08T03:54:57.161Z,0.00
2022-11-08T03:56:00.413Z,0.00
2022-11-08T03:57:03.915Z,0.00
2022-11-08T03:58:07.399Z,0.00
2022-11-08T03:59:11.088Z,0.43
2022-11-08T04:00:14.266Z,0.50
2022-11-08T04:01:17.408Z,0.00
2022-11-08T04:02:20.908Z,0.33
2022-11-08T04:03:24.017Z,0.57
2022-11-08T04:04:27.209Z,0.00
2022-11-08T04:05:30.791Z,0.00
2022-11-08T04:06:34.108Z,0.00
2022-11-08T04:07:37.368Z,0.00
2022-11-08T04:08:40.513Z,0.33
2022-11-08T04:09:43.834Z,1.33
2022-11-08T04:10:47.207Z,0.00
2022-11-08T04:11:50.700Z,0.00
2022-11-08T04:12:54.136Z,0.00
2022-11-08T04:13:57.479Z,0.43
2022-11-08T04:15:00.770Z,0.57
2022-11-08T04:16:04.180Z,0.29
2022-11-08T04:17:07.534Z,0.71
2022-11-08T04:18:10.812Z,0.57
2022-11-08T04:19:14.220Z,0.43
2022-11-08T04:20:17.692Z,0.33
2022-11-08T04:21:21.107Z,1.00
2022-11-08T04:22:24.260Z,1.43
2022-11-08T04:23:27.542Z,2.00
2022-11-08T04:24:31.137Z,1.14
2022-11-08T04:25:35.220Z,1.25
2022-11-08T04:26:38.627Z,0.50
2022-11-08T04:27:41.701Z,0.00
2022-11-08T04:28:44.892Z,0.00
2022-11-08T04:29:47.961Z,0.00
2022-11-08T04:30:51.453Z,0.00
2022-11-08T04:31:55.040Z,0.00
2022-11-08T04:32:58.324Z,0.00
2022-11-08T04:34:01.611Z,0.43
2022-11-08T04:35:04.910Z,0.57
2022-11-08T04:36:08.186Z,0.00
2022-11-08T04:37:11.475Z,0.43
2022-11-08T04:38:14.775Z,0.86
2022-11-08T04:39:18.002Z,1.00
2022-11-08T04:40:21.420Z,0.83
2022-11-08T04:41:24.606Z,0.43
2022-11-08T04:42:28.194Z,0.43
2022-11-08T04:43:32.090Z,0.57
2022-11-08T04:44:35.381Z,0.00
2022-11-08T04:45:38.664Z,0.00
2022-11-08T04:46:41.950Z,0.00
2022-11-08T04:47:48.330Z,0.29
2022-11-08T04:48:49.851Z,0.50
2022-11-08T04:49:53.232Z,0.00
2022-11-08T04:50:56.615Z,0.43
2022-11-08T04:52:00.799Z,0.57
2022-11-08T04:53:04.351Z,0.00
2022-11-08T04:54:08.109Z,0.00
2022-11-08T04:55:11.602Z,0.00
2022-11-08T04:56:14.742Z,0.00
2022-11-08T04:57:17.965Z,0.43
2022-11-08T04:58:21.466Z,1.00
2022-11-08T04:59:25.042Z,0.37
2022-11-08T05:00:28.334Z,0.00
2022-11-08T05:01:31.809Z,0.00
2022-11-08T05:02:35.335Z,0.50
2022-11-08T05:03:38.486Z,0.57
2022-11-08T05:04:41.696Z,0.00
2022-11-08T05:05:44.747Z,0.43
2022-11-08T05:06:48.242Z,0.57
2022-11-08T05:07:51.626Z,0.00
2022-11-08T05:08:55.018Z,0.43
2022-11-08T05:10:02.167Z,0.57
2022-11-08T05:11:03.015Z,0.13
2022-11-08T05:12:06.501Z,0.57
2022-11-08T05:13:09.687Z,0.00
2022-11-08T05:14:12.869Z,0.00
2022-11-08T05:15:16.053Z,0.00
2022-11-08T05:16:19.440Z,0.00
2022-11-08T05:17:22.926Z,0.43
2022-11-08T05:18:26.516Z,0.14
2022-11-08T05:19:29.906Z,0.43
2022-11-08T05:20:33.280Z,0.71
2022-11-08T05:21:36.880Z,0.86
2022-11-08T05:22:40.168Z,0.00
2022-11-08T05:23:43.506Z,0.14
2022-11-08T05:27:10.613Z,1.00
2022-11-08T05:28:13.928Z,0.29
2022-11-08T05:29:17.585Z,0.83
2022-11-08T05:30:21.273Z,1.43
2022-11-08T05:32:37.484Z,0.50
2022-11-08T05:33:40.668Z,0.43
2022-11-08T05:34:50.154Z,1.00
2022-11-08T05:37:01.053Z,1.00
2022-11-08T05:38:04.258Z,1.14
2022-11-08T05:39:07.395Z,0.57
2022-11-08T05:40:10.595Z,2.00
2022-11-08T05:41:13.882Z,1.57
2022-11-08T05:42:17.386Z,0.57
2022-11-08T05:44:36.532Z,0.00
2022-11-08T05:49:14.321Z,0.25
2022-11-08T05:50:19.490Z,0.67
2022-11-08T05:51:21.852Z,1.00
2022-11-08T05:52:25.032Z,0.00
2022-11-08T05:53:28.114Z,0.43
2022-11-08T05:54:31.390Z,0.57
2022-11-08T05:55:34.774Z,0.00
2022-11-08T05:56:38.062Z,0.14
2022-11-08T05:57:41.381Z,1.00
2022-11-08T05:58:44.422Z,0.57
2022-11-08T05:59:47.923Z,0.00
2022-11-08T06:00:51.368Z,0.00
2022-11-08T06:01:54.895Z,0.00
2022-11-08T06:02:58.326Z,0.00
2022-11-08T06:04:01.873Z,0.43
2022-11-08T06:05:05.250Z,0.57
2022-11-08T06:06:08.847Z,0.00
2022-11-08T06:07:12.167Z,0.00
2022-11-08T06:08:15.830Z,0.00
2022-11-08T06:09:19.520Z,0.00
2022-11-08T06:10:22.845Z,0.00
2022-11-08T06:11:26.408Z,0.00
2022-11-08T06:12:29.882Z,0.00
2022-11-08T06:13:33.501Z,0.86
2022-11-08T06:14:36.963Z,1.75
2022-11-08T06:15:40.245Z,1.14
2022-11-08T06:16:43.429Z,0.43
2022-11-08T06:17:46.722Z,0.29
2022-11-08T06:18:50.200Z,0.00
2022-11-08T06:19:53.598Z,1.71
2022-11-08T06:20:56.859Z,2.57
2022-11-08T06:22:00.079Z,1.67
2022-11-08T06:23:03.649Z,0.14
2022-11-08T06:24:07.045Z,0.00
2022-11-08T06:25:10.623Z,1.00
2022-11-08T06:26:13.905Z,1.00
2022-11-08T06:27:17.044Z,0.43
2022-11-08T06:28:20.473Z,0.86
2022-11-08T06:29:23.555Z,1.14
2022-11-08T06:30:26.934Z,0.29
2022-11-08T06:31:30.098Z,0.14
2022-11-08T06:32:33.414Z,0.14
2022-11-08T06:33:36.689Z,0.00
2022-11-08T06:34:40.296Z,0.43
2022-11-08T06:35:43.473Z,0.57
2022-11-08T06:36:46.646Z,0.00
2022-11-08T06:37:50.138Z,0.67
2022-11-08T06:38:53.293Z,1.14
2022-11-08T06:39:56.920Z,0.00
2022-11-08T06:41:00.520Z,0.00
2022-11-08T06:42:04.300Z,0.00
2022-11-08T06:43:07.580Z,0.25
2022-11-08T06:44:10.979Z,0.29
2022-11-08T06:45:14.358Z,0.00
2022-11-08T06:46:17.527Z,0.33
2022-11-08T06:47:20.614Z,1.00
2022-11-08T06:48:23.590Z,0.57
2022-11-08T06:49:26.687Z,0.00
2022-11-08T06:50:38.081Z,0.00
2022-11-08T06:51:41.045Z,0.00
2022-11-08T06:52:44.206Z,0.00
2022-11-08T06:53:47.489Z,0.43
2022-11-08T06:54:51.205Z,1.00
2022-11-08T06:55:54.675Z,0.57
2022-11-08T06:56:58.167Z,0.50
2022-11-08T06:58:01.751Z,0.57
2022-11-08T06:59:05.484Z,0.00
2022-11-08T07:00:08.849Z,0.00
2022-11-08T07:01:12.119Z,0.00
2022-11-08T07:02:15.536Z,0.43
2022-11-08T07:03:19.535Z,1.00
2022-11-08T07:04:23.296Z,1.00
2022-11-08T07:05:26.380Z,0.57
2022-11-08T07:06:29.976Z,0.14
2022-11-08T07:07:33.779Z,0.43
2022-11-08T07:08:36.954Z,0.00
2022-11-08T07:09:40.236Z,0.00
2022-11-08T07:10:43.618Z,0.00
2022-11-08T07:11:46.803Z,0.00
2022-11-08T07:12:49.894Z,0.43
2022-11-08T07:13:53.067Z,0.57
2022-11-08T07:14:56.245Z,0.00
2022-11-08T07:15:59.449Z,0.33
2022-11-08T07:17:02.626Z,0.67
2022-11-08T07:18:05.957Z,0.00
2022-11-08T07:19:09.291Z,0.33
2022-11-08T07:20:12.670Z,0.00
2022-11-08T07:21:16.261Z,0.43
2022-11-08T07:22:20.055Z,1.57
2022-11-08T07:23:24.473Z,1.50
2022-11-08T07:24:27.547Z,0.25
2022-11-08T07:25:30.933Z,0.00
2022-11-08T07:26:35.152Z,0.00
2022-11-08T07:27:38.425Z,0.00
2022-11-08T07:28:41.815Z,0.00
2022-11-08T07:29:44.997Z,0.67
2022-11-08T07:30:48.484Z,1.00
2022-11-08T07:31:51.978Z,0.57
2022-11-08T07:32:55.980Z,0.00
2022-11-08T07:33:59.659Z,0.00
2022-11-08T07:35:03.064Z,0.14
2022-11-08T07:36:06.539Z,1.00
2022-11-08T07:37:10.032Z,1.00
2022-11-08T07:38:13.608Z,0.43
2022-11-08T07:39:17.121Z,0.13
2022-11-08T07:40:20.305Z,0.29
2022-11-08T07:41:23.482Z,0.57
2022-11-08T07:42:38.387Z,1.00
2022-11-08T07:43:31.945Z,1.00
2022-11-08T07:44:35.170Z,0.57
2022-11-08T07:45:38.455Z,0.00
2022-11-08T07:46:41.734Z,0.43
2022-11-08T07:47:45.244Z,0.57
2022-11-08T07:48:49.439Z,0.57
2022-11-08T07:49:52.614Z,1.12
2022-11-08T07:50:56.115Z,2.00
2022-11-08T07:52:00.121Z,1.14
2022-11-08T07:53:03.795Z,0.25
2022-11-08T07:54:07.193Z,0.00
2022-11-08T07:55:10.485Z,0.00
2022-11-08T07:56:13.780Z,0.71
2022-11-08T07:57:17.013Z,1.71
2022-11-08T07:58:20.334Z,1.43
2022-11-08T07:59:23.812Z,1.00
2022-11-08T08:00:27.043Z,1.00
2022-11-08T08:01:30.202Z,0.57
2022-11-08T08:02:33.538Z,1.00
2022-11-08T08:03:36.956Z,2.17
2022-11-08T08:04:40.443Z,1.57
2022-11-08T08:05:43.821Z,0.57
2022-11-08T08:06:47.111Z,0.00
2022-11-08T08:07:50.388Z,0.86
2022-11-08T08:08:53.994Z,1.14
2022-11-08T08:09:57.480Z,0.00
2022-11-08T08:11:00.773Z,0.00
2022-11-08T08:12:04.045Z,0.86
2022-11-08T08:13:07.231Z,1.57
2022-11-08T08:14:10.498Z,1.00
2022-11-08T08:15:13.796Z,2.14
2022-11-08T08:16:17.074Z,2.71
2022-11-08T08:17:20.368Z,1.43
2022-11-08T08:18:23.435Z,1.57
2022-11-08T08:19:26.525Z,0.86
2022-11-08T08:20:29.904Z,1.50
2022-11-08T08:21:33.196Z,1.00
2022-11-08T08:22:36.265Z,0.57
2022-11-08T08:23:39.568Z,0.00
2022-11-08T08:24:42.834Z,0.33
2022-11-08T08:25:46.239Z,1.17
2022-11-08T08:26:50.742Z,1.00
2022-11-08T08:27:54.088Z,1.25
2022-11-08T08:28:57.522Z,1.00
2022-11-08T08:30:01.012Z,1.57
2022-11-08T08:31:04.390Z,1.00
2022-11-08T08:32:07.582Z,1.00
2022-11-08T08:34:15.178Z,1.75
2022-11-08T08:35:18.659Z,1.86
2022-11-08T08:36:22.251Z,2.00
2022-11-08T08:37:25.632Z,1.00
2022-11-08T08:38:28.911Z,1.00
2022-11-08T08:39:32.311Z,1.50
2022-11-08T08:40:35.384Z,2.29
2022-11-08T08:41:39.209Z,2.50
2022-11-08T08:42:42.362Z,1.43
2022-11-08T08:43:45.447Z,1.57
2022-11-08T08:44:48.727Z,1.00
2022-11-08T08:45:51.911Z,1.43
2022-11-08T08:46:55.075Z,2.00
2022-11-08T08:47:58.378Z,1.67
2022-11-08T08:49:01.854Z,1.57
2022-11-08T08:50:04.939Z,1.14
2022-11-08T08:51:08.426Z,1.67
2022-11-08T08:52:11.975Z,0.57
2022-11-08T08:53:15.222Z,1.29
2022-11-08T08:54:18.993Z,1.86
2022-11-08T08:55:22.490Z,0.00
2022-11-08T08:56:25.647Z,0.43
2022-11-08T08:57:28.847Z,0.86
2022-11-08T08:58:31.933Z,2.17
2022-11-08T09:01:43.728Z,1.50
2022-11-08T09:02:47.127Z,2.00
2022-11-08T09:03:50.545Z,1.00
2022-11-08T09:04:53.851Z,0.57
2022-11-08T09:05:57.291Z,0.43
2022-11-08T09:07:00.831Z,1.00
2022-11-08T09:08:04.209Z,1.00
2022-11-08T09:09:07.341Z,0.57
2022-11-08T09:10:12.231Z,0.33
2022-11-08T09:11:15.026Z,0.50
2022-11-08T09:12:18.529Z,1.43
2022-11-08T09:13:22.129Z,1.86
2022-11-08T09:14:25.181Z,1.57
2022-11-08T09:15:28.587Z,1.43
2022-11-08T09:16:31.730Z,1.43
2022-11-08T09:17:34.940Z,0.86
2022-11-08T09:18:38.191Z,1.57
2022-11-08T09:19:41.300Z,2.29
2022-11-08T09:20:44.447Z,1.57
2022-11-08T09:21:47.739Z,1.33
2022-11-08T09:22:51.259Z,1.67
2022-11-08T09:23:55.058Z,0.57
2022-11-08T09:24:58.433Z,0.43
2022-11-08T09:26:01.838Z,1.50
2022-11-08T09:27:05.190Z,0.71
2022-11-08T09:28:08.353Z,1.00
2022-11-08T09:29:12.006Z,1.00
2022-11-08T09:30:15.005Z,0.57
2022-11-08T09:31:18.031Z,0.33
2022-11-08T09:32:33.361Z,0.57
2022-11-08T09:34:28.606Z,1.00
2022-11-08T09:35:31.889Z,0.57
2022-11-08T09:36:35.072Z,0.86
2022-11-08T09:37:38.271Z,2.86
2022-11-08T09:38:41.454Z,2.71
2022-11-08T09:39:44.826Z,1.43
2022-11-08T09:40:47.910Z,1.57
2022-11-08T09:41:54.559Z,1.00
2022-11-08T09:42:55.398Z,0.50
2022-11-08T09:43:58.882Z,0.43
2022-11-08T09:45:02.176Z,1.00
2022-11-08T09:46:05.365Z,1.00
2022-11-08T09:47:08.634Z,0.43
2022-11-08T09:48:11.579Z,1.00
2022-11-08T09:49:14.892Z,1.86
2022-11-08T09:50:17.977Z,2.14
2022-11-08T09:51:21.081Z,2.33
2022-11-08T09:52:24.142Z,1.33
2022-11-08T09:53:27.210Z,1.29
2022-11-08T09:54:30.610Z,1.43
2022-11-08T09:55:33.689Z,1.14
2022-11-08T09:56:36.757Z,0.43
2022-11-08T09:57:40.354Z,1.00
2022-11-08T09:58:43.332Z,1.00
2022-11-08T09:59:46.516Z,1.33
2022-11-08T10:00:49.494Z,2.00
2022-11-08T10:01:52.737Z,2.43
2022-11-08T10:02:55.966Z,2.29
2022-11-08T10:03:59.109Z,1.71
2022-11-08T10:05:02.323Z,2.00
2022-11-08T10:06:05.608Z,1.86
2022-11-08T10:07:08.848Z,0.57
2022-11-08T10:08:12.193Z,0.33
2022-11-08T10:09:15.559Z,1.00
2022-11-08T10:10:18.947Z,0.86
2022-11-08T10:11:22.464Z,0.43
2022-11-08T10:12:26.068Z,1.00
2022-11-08T10:13:29.327Z,0.50
2022-11-08T10:14:33.920Z,1.00
2022-11-08T10:15:37.418Z,1.00
2022-11-08T10:16:40.907Z,1.43
2022-11-08T10:17:44.515Z,1.50
2022-11-08T10:18:47.576Z,1.00
2022-11-08T10:19:50.971Z,1.00
2022-11-08T10:20:54.559Z,1.00
2022-11-08T10:21:58.521Z,1.43
2022-11-08T10:23:01.653Z,1.00
2022-11-08T10:24:04.817Z,0.14
2022-11-08T10:25:08.524Z,0.43
2022-11-08T10:26:11.789Z,1.00
2022-11-08T10:27:15.079Z,1.43
2022-11-08T10:28:17.952Z,1.57
2022-11-08T10:29:21.024Z,1.00
2022-11-08T10:30:24.516Z,0.83
2022-11-08T10:31:28.012Z,1.00
2022-11-08T10:32:31.670Z,0.71
2022-11-08T10:33:35.193Z,1.14
2022-11-08T10:34:38.381Z,1.12
2022-11-08T10:35:41.455Z,2.00
2022-11-08T10:36:44.887Z,2.71
2022-11-08T10:37:48.449Z,1.00
2022-11-08T10:38:52.953Z,1.43
2022-11-08T10:39:56.436Z,1.75
2022-11-08T10:40:59.616Z,1.14
2022-11-08T10:42:03.007Z,0.86
2022-11-08T10:43:09.352Z,1.57
2022-11-08T10:44:11.225Z,1.50
2022-11-08T10:45:14.449Z,1.00
2022-11-08T10:46:17.780Z,1.00
2022-11-08T10:47:21.067Z,1.43
2022-11-08T10:48:24.950Z,0.17
2022-11-08T10:49:28.202Z,0.29
2022-11-08T10:50:31.537Z,0.86
2022-11-08T10:51:34.819Z,1.00
2022-11-08T10:52:37.804Z,1.00
2022-11-08T10:53:41.393Z,0.57
2022-11-08T10:54:44.363Z,1.14
2022-11-08T10:55:47.952Z,2.00
2022-11-08T10:56:51.138Z,2.00
2022-11-08T10:57:54.533Z,1.57
2022-11-08T10:58:58.118Z,1.29
2022-11-08T11:00:01.620Z,1.00
2022-11-08T11:01:05.192Z,1.00
2022-11-08T11:02:08.689Z,0.57
2022-11-08T11:03:12.785Z,1.00
2022-11-08T11:04:16.375Z,1.71
2022-11-08T11:05:19.662Z,1.29
2022-11-08T11:06:23.161Z,2.14
2022-11-08T11:07:26.533Z,2.71
2022-11-08T11:08:29.907Z,1.43
2022-11-08T11:09:33.308Z,1.57
2022-11-08T11:10:36.600Z,1.43
2022-11-08T11:11:40.087Z,2.00
2022-11-08T11:12:43.273Z,1.00
2022-11-08T11:13:46.351Z,1.33
2022-11-08T11:14:49.532Z,1.67
2022-11-08T11:15:52.571Z,1.43
2022-11-08T11:16:55.790Z,1.14
2022-11-08T11:17:58.967Z,0.43
2022-11-08T11:19:02.251Z,1.43
2022-11-08T11:20:06.012Z,2.00
2022-11-08T11:21:09.058Z,1.14
2022-11-08T11:22:12.213Z,0.86
2022-11-08T11:23:15.292Z,2.86
2022-11-08T11:24:19.390Z,3.00
2022-11-08T11:25:23.424Z,2.00
2022-11-08T11:26:26.772Z,0.86
2022-11-08T11:27:29.875Z,2.33
2022-11-08T11:28:32.934Z,1.83
2022-11-08T11:29:36.330Z,0.00
2022-11-08T11:30:39.415Z,0.57
2022-11-08T11:31:42.577Z,1.43
2022-11-08T11:32:45.600Z,1.14
2022-11-08T11:33:48.753Z,0.33
2022-11-08T11:34:51.827Z,1.33
2022-11-08T11:35:56.139Z,0.57
2022-11-08T11:36:59.511Z,1.50
2022-11-08T11:38:03.125Z,2.57
2022-11-08T11:39:06.493Z,1.00
2022-11-08T11:40:09.987Z,1.00
2022-11-08T11:41:13.829Z,0.29
2022-11-08T11:42:44.944Z,0.00
2022-11-08T11:43:21.379Z,1.00
2022-11-08T11:44:24.654Z,2.00
2022-11-08T11:45:28.053Z,1.14
2022-11-08T11:46:31.520Z,0.14
2022-11-08T11:47:34.951Z,1.00
2022-11-08T11:48:38.096Z,1.00
2022-11-08T11:49:41.534Z,0.57
2022-11-08T11:50:44.767Z,0.37
2022-11-08T11:51:47.785Z,0.33
2022-11-08T11:52:50.826Z,1.00
2022-11-08T11:53:54.210Z,1.71
2022-11-08T11:54:57.495Z,1.57
2022-11-08T11:56:00.876Z,0.57
2022-11-08T11:57:04.690Z,0.43
2022-11-08T11:58:08.263Z,1.50
2022-11-08T11:59:11.651Z,2.43
2022-11-08T12:00:15.016Z,2.14
2022-11-08T12:01:18.433Z,0.57
2022-11-08T12:02:21.870Z,0.86
2022-11-08T12:03:25.210Z,1.50
2022-11-08T12:04:28.493Z,1.29
2022-11-08T12:05:31.890Z,2.14
2022-11-08T12:06:35.192Z,1.86
2022-11-08T12:07:38.566Z,1.71
2022-11-08T12:08:41.624Z,0.43
2022-11-08T12:09:44.617Z,1.43
2022-11-08T12:10:47.654Z,2.50
2022-11-08T12:11:50.665Z,3.86
2022-11-08T12:12:53.941Z,1.57
2022-11-08T12:13:57.127Z,2.00
2022-11-08T12:15:00.405Z,2.67
2022-11-08T12:16:03.399Z,3.00
2022-11-08T12:17:07.081Z,1.33
2022-11-08T12:18:11.085Z,1.75
2022-11-08T12:19:14.334Z,1.14
2022-11-08T12:20:19.546Z,1.33
2022-11-08T12:21:21.859Z,1.50
2022-11-08T12:22:25.132Z,1.67
2022-11-08T12:23:28.530Z,2.33
2022-11-08T12:24:32.221Z,1.00
2022-11-08T12:25:35.513Z,0.57
2022-11-08T12:26:38.692Z,0.86
2022-11-08T12:27:41.962Z,1.57
2022-11-08T12:28:45.461Z,1.29
2022-11-08T12:29:48.546Z,1.86
2022-11-08T12:30:51.515Z,2.43
2022-11-08T12:31:54.796Z,2.00
2022-11-08T12:32:58.083Z,0.57
2022-11-08T12:34:01.484Z,0.71
2022-11-08T12:35:04.764Z,1.43
2022-11-08T12:36:07.931Z,2.00
2022-11-08T12:37:11.114Z,2.33
2022-11-08T12:38:14.476Z,1.83
2022-11-08T12:39:23.168Z,1.00
2022-11-08T12:40:22.509Z,1.00
2022-11-08T12:41:25.798Z,1.43
2022-11-08T12:42:28.976Z,1.29
2022-11-08T12:43:32.056Z,1.43
2022-11-08T12:44:35.941Z,0.86
2022-11-08T12:45:39.194Z,1.62
2022-11-08T12:46:42.213Z,2.00
2022-11-08T12:47:45.185Z,1.33
2022-11-08T12:48:48.267Z,2.43
2022-11-08T12:49:51.859Z,2.14
2022-11-08T12:50:57.601Z,0.86
2022-11-08T12:51:59.657Z,1.12
2022-11-08T12:53:02.915Z,1.43
2022-11-08T12:54:06.093Z,1.83
2022-11-08T12:55:09.503Z,1.57
2022-11-08T12:56:12.992Z,1.43
2022-11-08T12:57:16.588Z,1.57
2022-11-08T12:58:20.077Z,1.00
2022-11-08T12:59:23.470Z,1.00
2022-11-08T13:00:26.860Z,1.00
2022-11-08T13:01:30.182Z,1.00
2022-11-08T13:02:33.309Z,1.67
2022-11-08T13:03:36.494Z,1.50
2022-11-08T13:04:39.789Z,1.14
2022-11-08T13:05:43.640Z,0.86
2022-11-08T13:06:46.539Z,2.00
2022-11-08T13:07:49.534Z,1.67
2022-11-08T13:08:52.625Z,1.43
2022-11-08T13:09:55.701Z,2.00
2022-11-08T13:10:58.567Z,1.67
2022-11-08T13:12:01.645Z,1.83
2022-11-08T13:13:04.940Z,3.00
2022-11-08T13:14:07.915Z,2.57
2022-11-08T13:15:11.098Z,1.67
2022-11-08T13:16:14.067Z,1.86
2022-11-08T13:17:17.043Z,2.00
2022-11-08T13:18:20.360Z,1.17
2022-11-08T13:19:23.520Z,2.00
2022-11-08T13:20:26.497Z,1.33
2022-11-08T13:21:29.570Z,1.00
2022-11-08T13:22:32.643Z,3.00
2022-11-08T13:23:35.730Z,3.67
2022-11-08T13:24:44.529Z,1.33
2022-11-08T13:25:43.122Z,1.57
2022-11-08T13:26:46.099Z,1.00
2022-11-08T13:27:49.276Z,1.00
2022-11-08T13:28:52.317Z,0.57
2022-11-08T13:29:55.337Z,1.33
2022-11-08T13:30:58.413Z,3.00
2022-11-08T13:32:01.385Z,1.43
2022-11-08T13:33:04.362Z,2.00
2022-11-08T13:34:07.930Z,2.00
2022-11-08T13:35:11.632Z,2.57
2022-11-08T13:36:15.052Z,1.14
2022-11-08T13:37:18.503Z,1.43
2022-11-08T13:38:22.060Z,2.50
2022-11-08T13:39:26.607Z,2.14
2022-11-08T13:40:30.198Z,1.00
2022-11-08T13:41:33.691Z,1.00
2022-11-08T13:42:37.179Z,1.00
2022-11-08T13:43:40.357Z,1.00
2022-11-08T13:44:43.643Z,1.43
2022-11-08T13:45:46.931Z,2.00
2022-11-08T13:46:50.311Z,2.00
2022-11-08T13:47:53.596Z,2.43
2022-11-08T13:48:56.884Z,2.83
2022-11-08T13:50:00.471Z,2.14
2022-11-08T13:51:03.860Z,1.86
2022-11-08T13:52:07.458Z,1.43
2022-11-08T13:53:10.745Z,2.00
2022-11-08T13:54:14.242Z,2.00
2022-11-08T13:55:17.333Z,1.67
2022-11-08T13:56:20.525Z,1.33
2022-11-08T13:57:23.771Z,2.14
2022-11-08T13:58:27.265Z,0.57
2022-11-08T13:59:30.558Z,0.00
2022-11-08T14:00:33.827Z,0.86
2022-11-08T14:01:38.838Z,2.29
2022-11-08T14:02:41.419Z,2.00
2022-11-08T14:03:44.807Z,2.00
2022-11-08T14:04:47.993Z,2.67
2022-11-08T14:05:51.167Z,1.83
2022-11-08T14:06:55.766Z,0.67
2022-11-08T14:07:59.284Z,1.00
2022-11-08T14:09:02.728Z,0.57
2022-11-08T14:10:06.149Z,0.43
2022-11-08T14:11:09.641Z,1.71
2022-11-08T14:12:13.233Z,1.57
2022-11-08T14:13:17.056Z,1.86
2022-11-08T14:14:20.826Z,2.00
2022-11-08T14:15:24.166Z,1.00
2022-11-08T14:16:27.511Z,1.00
2022-11-08T14:17:30.778Z,1.43